YFC93 WSSL-WSSL

Flight info

Callsign YFC93
Flight time 0h 5m
Altitude 8000
Route LATA
Aircraft DA42/L-SBDGRY/S

Departure

Time 2026-05-06 14:48
Airport Seletar Airport (WSSL)

Arrival

Time 2026-05-06 14:53
Airport Seletar Airport (WSSL)
Time Latitude Longitude Altitude Speed Heading
2026-05-06 14:36 1.41446 103.86384 50 ft 0 kts 149°
2026-05-06 14:41 1.41433 103.86391 50 ft 7 kts 142°
2026-05-06 14:41 1.41456 103.86427 50 ft 8 kts 34°
2026-05-06 14:41 1.41509 103.86474 50 ft 12 kts 25°
2026-05-06 14:41 1.41526 103.86475 50 ft 0 kts 354°
2026-05-06 14:44 1.41527 103.86476 50 ft 2 kts 34°
2026-05-06 14:44 1.41560 103.86507 50 ft 13 kts 35°
2026-05-06 14:44 1.41553 103.86541 50 ft 0 kts 123°
2026-05-06 14:45 1.41541 103.86561 50 ft 11 kts 120°
2026-05-06 14:45 1.41465 103.86630 51 ft 8 kts 207°
2026-05-06 14:46 1.41415 103.86582 50 ft 13 kts 213°
2026-05-06 14:46 1.41367 103.86554 50 ft 2 kts 21°
2026-05-06 14:46 1.41382 103.86561 50 ft 0 kts 33°
2026-05-06 14:47 1.41403 103.86574 50 ft 21 kts 33°
2026-05-06 14:47 1.41704 103.86772 109 ft 70 kts 34°
2026-05-06 14:47 1.42128 103.87062 352 ft 76 kts 33°
2026-05-06 14:48 1.42597 103.87333 575 ft 83 kts 26°
2026-05-06 14:48 1.43115 103.87547 851 ft 77 kts 10°
2026-05-06 14:48 1.43623 103.87364 1031 ft 88 kts 318°
2026-05-06 14:48 1.43819 103.86880 1344 ft 76 kts 237°
2026-05-06 14:49 1.43388 103.86484 1497 ft 90 kts 218°
2026-05-06 14:49 1.42902 103.86113 1522 ft 87 kts 216°
2026-05-06 14:49 1.42431 103.85758 1573 ft 84 kts 218°
2026-05-06 14:49 1.41980 103.85378 1603 ft 84 kts 220°
2026-05-06 14:50 1.41545 103.85007 1677 ft 80 kts 219°
2026-05-06 14:50 1.41129 103.84644 1696 ft 84 kts 219°
2026-05-06 14:50 1.40699 103.84261 1742 ft 83 kts 222°
2026-05-06 14:50 1.40320 103.83835 1791 ft 81 kts 228°
2026-05-06 14:51 1.39917 103.83396 2003 ft 85 kts 226°
2026-05-06 14:51 1.39799 103.83005 2124 ft 94 kts 272°
2026-05-06 14:51 1.39709 103.82416 2449 ft 83 kts 255°
2026-05-06 14:51 1.39595 103.81851 2723 ft 82 kts 255°
2026-05-06 14:52 1.39475 103.81317 3022 ft 78 kts 256°
2026-05-06 14:52 1.39265 103.80913 3133 ft 64 kts 190°
2026-05-06 14:52 1.39120 103.81349 2792 ft 83 kts 91°
2026-05-06 14:52 1.39129 103.81909 2611 ft 83 kts 90°
2026-05-06 14:53 1.39210 103.82520 2340 ft 85 kts 92°
2026-05-06 14:53 1.39168 103.82641 484 ft 18 kts 237°
2026-05-06 14:53 1.38999 103.82263 819 ft 91 kts 174°
2026-05-06 14:53 1.38709 103.82428 809 ft 87 kts 127°